createdAt,value
2023-07-03T00:01:17.390Z,18.06
2023-07-03T00:03:43.829Z,17.94
2023-07-03T00:06:10.414Z,17.99
2023-07-03T00:08:37.039Z,17.93
2023-07-03T00:11:05.443Z,18.00
2023-07-03T00:13:32.101Z,17.99
2023-07-03T00:16:00.692Z,18.04
2023-07-03T00:18:27.902Z,18.02
2023-07-03T00:20:55.635Z,17.96
2023-07-03T00:23:23.176Z,17.93
2023-07-03T00:25:50.866Z,17.83
2023-07-03T00:28:17.895Z,17.79
2023-07-03T00:30:46.030Z,17.84
2023-07-03T00:33:13.119Z,17.78
2023-07-03T00:35:40.384Z,17.76
2023-07-03T00:38:06.887Z,17.73
2023-07-03T00:40:33.746Z,17.68
2023-07-03T00:43:00.459Z,17.74
2023-07-03T00:45:26.977Z,17.81
2023-07-03T00:47:54.509Z,17.77
2023-07-03T00:50:21.495Z,17.69
2023-07-03T00:52:53.963Z,17.73
2023-07-03T00:55:21.464Z,17.64
2023-07-03T00:57:47.852Z,17.76
2023-07-03T01:00:14.821Z,17.66
2023-07-03T01:02:59.941Z,17.58
2023-07-03T01:05:33.310Z,17.64
2023-07-03T01:08:01.872Z,17.40
2023-07-03T01:10:30.656Z,17.46
2023-07-03T01:13:01.894Z,17.51
2023-07-03T01:15:35.252Z,17.59
2023-07-03T01:18:04.798Z,17.61
2023-07-03T01:20:35.821Z,17.66
2023-07-03T01:23:20.067Z,17.70
2023-07-03T01:25:48.426Z,17.79
2023-07-03T01:28:18.231Z,17.79
2023-07-03T01:30:45.729Z,17.77
2023-07-03T01:33:18.924Z,17.74
2023-07-03T01:35:50.126Z,17.79
2023-07-03T01:38:18.933Z,17.79
2023-07-03T01:40:45.402Z,17.72
2023-07-03T01:43:13.270Z,17.73
2023-07-03T01:45:45.156Z,17.75
2023-07-03T01:48:11.736Z,17.88
2023-07-03T01:50:39.756Z,17.93
2023-07-03T01:53:14.071Z,17.72
2023-07-03T01:56:05.230Z,17.45
2023-07-03T01:58:49.532Z,17.22
2023-07-03T02:01:26.132Z,17.16
2023-07-03T02:04:05.605Z,17.28
2023-07-03T02:06:39.074Z,17.13
2023-07-03T02:09:06.357Z,17.08
2023-07-03T02:11:32.876Z,17.07
2023-07-03T02:13:59.741Z,17.06
2023-07-03T02:16:26.279Z,17.07
2023-07-03T02:18:52.738Z,17.16
2023-07-03T02:21:19.273Z,17.22
2023-07-03T02:23:46.056Z,17.32
2023-07-03T02:26:12.984Z,17.36
2023-07-03T02:28:39.681Z,17.36
2023-07-03T02:31:06.333Z,17.17
2023-07-03T02:33:33.219Z,17.25
2023-07-03T02:36:03.409Z,16.98
2023-07-03T02:38:29.846Z,16.99
2023-07-03T02:40:56.485Z,17.12
2023-07-03T02:43:22.921Z,17.24
2023-07-03T02:45:50.140Z,17.21
2023-07-03T02:48:16.883Z,17.20
2023-07-03T02:50:43.466Z,17.09
2023-07-03T02:53:10.102Z,17.14
2023-07-03T02:55:36.490Z,17.38
2023-07-03T02:58:02.879Z,17.29
2023-07-03T03:00:29.436Z,17.22
2023-07-03T03:02:56.009Z,17.28
2023-07-03T03:05:22.656Z,17.31
2023-07-03T03:07:49.190Z,17.30
2023-07-03T03:10:15.778Z,17.20
2023-07-03T03:12:42.289Z,17.21
2023-07-03T03:15:09.006Z,17.06
2023-07-03T03:17:35.428Z,17.00
2023-07-03T03:20:01.872Z,17.03
2023-07-03T03:22:28.429Z,17.09
2023-07-03T03:24:54.968Z,17.08
2023-07-03T03:27:21.373Z,17.07
2023-07-03T03:29:49.259Z,17.07
2023-07-03T03:32:15.688Z,17.11
2023-07-03T03:34:42.120Z,17.15
2023-07-03T03:37:08.532Z,17.12
2023-07-03T03:39:35.154Z,17.15
2023-07-03T03:42:01.936Z,17.10
2023-07-03T03:44:28.344Z,17.09
2023-07-03T03:46:54.757Z,17.07
2023-07-03T03:49:21.307Z,17.05
2023-07-03T03:51:47.805Z,17.07
2023-07-03T03:54:14.204Z,17.10
2023-07-03T03:56:40.626Z,17.09
2023-07-03T03:59:07.610Z,17.09
2023-07-03T04:01:35.527Z,17.03
2023-07-03T04:04:02.506Z,17.05
2023-07-03T04:06:29.227Z,17.03
2023-07-03T04:08:59.748Z,17.03
2023-07-03T04:11:27.374Z,17.13
2023-07-03T04:13:53.844Z,17.07
2023-07-03T04:16:21.032Z,17.01
2023-07-03T04:18:47.538Z,17.06
2023-07-03T04:21:14.436Z,17.03
2023-07-03T04:23:42.030Z,17.01
2023-07-03T04:26:08.575Z,17.00
2023-07-03T04:28:35.283Z,16.98
2023-07-03T04:31:03.533Z,16.95
2023-07-03T04:33:30.098Z,16.97
2023-07-03T04:35:56.740Z,17.00
2023-07-03T04:38:25.181Z,16.96
2023-07-03T04:40:53.270Z,17.00
2023-07-03T04:43:20.086Z,17.02
2023-07-03T04:45:48.443Z,17.08
2023-07-03T04:48:17.546Z,17.21
2023-07-03T04:50:47.325Z,17.19
2023-07-03T04:53:13.768Z,17.24
2023-07-03T04:55:40.254Z,17.35
2023-07-03T04:58:06.788Z,17.34
2023-07-03T05:00:33.237Z,17.37
2023-07-03T05:03:01.354Z,17.39
2023-07-03T05:05:28.004Z,17.51
2023-07-03T05:07:56.460Z,17.64
2023-07-03T05:10:25.544Z,17.71
2023-07-03T05:12:52.259Z,17.81
2023-07-03T05:15:20.412Z,17.86
2023-07-03T05:17:56.063Z,17.96
2023-07-03T05:20:23.539Z,17.98
2023-07-03T05:22:50.430Z,18.14
2023-07-03T05:25:17.698Z,18.11
2023-07-03T05:27:44.368Z,18.18
2023-07-03T05:30:11.602Z,18.26
2023-07-03T05:32:38.775Z,18.41
2023-07-03T05:35:06.442Z,18.41
2023-07-03T05:37:33.800Z,18.33
2023-07-03T05:40:00.347Z,18.33
2023-07-03T05:42:26.830Z,18.36
2023-07-03T05:44:53.232Z,18.38
2023-07-03T05:47:19.722Z,18.38
2023-07-03T05:49:46.263Z,18.38
2023-07-03T05:52:12.796Z,18.51
2023-07-03T05:54:39.508Z,18.40
2023-07-03T05:57:08.197Z,18.47
2023-07-03T05:59:36.814Z,18.53
2023-07-03T06:02:05.657Z,18.57
2023-07-03T06:04:34.287Z,18.58
2023-07-03T06:07:01.949Z,18.62
2023-07-03T06:09:29.153Z,18.52
2023-07-03T06:11:57.020Z,18.72
2023-07-03T06:14:24.369Z,18.65
2023-07-03T06:16:51.903Z,18.69
2023-07-03T06:19:19.835Z,18.75
2023-07-03T06:21:46.337Z,18.81
2023-07-03T06:24:15.028Z,18.91
2023-07-03T06:26:44.130Z,18.92
2023-07-03T06:29:12.736Z,18.99
2023-07-03T06:31:41.394Z,18.93
2023-07-03T06:34:08.240Z,18.92
2023-07-03T06:36:36.026Z,18.90
2023-07-03T06:39:05.917Z,19.00
2023-07-03T06:41:35.667Z,19.00
2023-07-03T06:44:05.137Z,18.97
2023-07-03T06:46:32.049Z,19.04
2023-07-03T06:48:58.747Z,19.00
2023-07-03T06:51:26.293Z,18.98
2023-07-03T06:53:53.200Z,19.02
2023-07-03T06:56:20.809Z,19.09
2023-07-03T06:58:50.685Z,19.05
2023-07-03T07:01:19.990Z,19.15
2023-07-03T07:03:46.682Z,19.22
2023-07-03T07:06:15.181Z,19.19
2023-07-03T07:08:42.007Z,19.13
2023-07-03T07:11:10.925Z,19.07
2023-07-03T07:13:50.163Z,19.01
2023-07-03T07:16:29.201Z,19.09
2023-07-03T07:18:57.849Z,19.20
2023-07-03T07:21:24.960Z,19.21
2023-07-03T07:23:53.674Z,19.36
2023-07-03T07:26:21.058Z,19.46
2023-07-03T07:28:47.560Z,19.43
2023-07-03T07:31:26.143Z,19.34
2023-07-03T07:33:53.200Z,19.37
2023-07-03T07:36:22.071Z,19.42
2023-07-03T07:38:55.210Z,19.31
2023-07-03T07:41:22.978Z,19.27
2023-07-03T07:43:50.420Z,19.27
2023-07-03T07:46:17.262Z,19.35
2023-07-03T07:48:43.879Z,19.39
2023-07-03T07:51:11.877Z,19.31
2023-07-03T07:53:38.457Z,19.30
2023-07-03T07:56:08.105Z,19.39
2023-07-03T07:58:35.734Z,19.38
2023-07-03T08:01:02.993Z,19.39
2023-07-03T08:03:29.675Z,19.51
2023-07-03T08:05:58.376Z,19.53
2023-07-03T08:08:27.126Z,19.46
2023-07-03T08:10:55.043Z,19.65
2023-07-03T08:13:22.256Z,19.66
2023-07-03T08:15:49.309Z,19.67
2023-07-03T08:18:16.966Z,19.76
2023-07-03T08:20:44.515Z,19.84
2023-07-03T08:23:11.388Z,19.71
2023-07-03T08:25:38.326Z,19.72
2023-07-03T08:28:05.553Z,19.81
2023-07-03T08:30:32.359Z,19.88
2023-07-03T08:32:58.819Z,19.97
2023-07-03T08:37:55.274Z,20.16
2023-07-03T08:40:23.575Z,20.32
2023-07-03T08:42:54.446Z,20.17
2023-07-03T08:45:24.353Z,20.13
2023-07-03T08:47:55.015Z,20.10
2023-07-03T08:50:35.800Z,20.10
2023-07-03T08:53:05.543Z,20.10
2023-07-03T08:55:42.022Z,20.09
2023-07-03T08:58:09.548Z,19.97
2023-07-03T09:00:46.039Z,20.08
2023-07-03T09:03:23.489Z,20.02
2023-07-03T09:06:03.220Z,20.15
2023-07-03T09:08:52.466Z,20.15
2023-07-03T09:11:22.182Z,20.03
2023-07-03T09:13:53.550Z,20.08
2023-07-03T09:16:23.539Z,20.12
2023-07-03T09:18:58.979Z,20.25
2023-07-03T09:21:28.306Z,20.38
2023-07-03T09:24:23.225Z,20.55
2023-07-03T09:27:01.004Z,20.42
2023-07-03T09:29:28.525Z,20.58
2023-07-03T09:31:56.435Z,20.51
2023-07-03T09:34:23.036Z,20.46
2023-07-03T09:37:00.456Z,20.52
2023-07-03T09:39:27.070Z,20.64
2023-07-03T09:41:58.047Z,20.73
2023-07-03T09:44:25.299Z,20.64
2023-07-03T09:46:56.858Z,20.63
2023-07-03T09:49:29.400Z,20.70
2023-07-03T09:51:58.875Z,20.85
2023-07-03T09:54:31.058Z,20.82
2023-07-03T09:56:57.792Z,20.71
2023-07-03T09:59:25.424Z,20.78
2023-07-03T10:07:06.391Z,20.75
2023-07-03T10:12:21.731Z,20.73
2023-07-03T10:14:55.313Z,20.73
2023-07-03T10:17:45.051Z,20.58
2023-07-03T10:20:17.849Z,20.53
2023-07-03T10:22:45.370Z,20.51
2023-07-03T10:25:19.340Z,20.58
2023-07-03T10:27:48.834Z,20.60
2023-07-03T10:30:19.427Z,20.70
2023-07-03T10:32:51.244Z,20.79
2023-07-03T10:35:25.420Z,20.67
2023-07-03T10:38:26.296Z,20.68
2023-07-03T10:41:18.680Z,20.73
2023-07-03T10:43:51.099Z,20.95
2023-07-03T10:46:27.988Z,20.95
2023-07-03T10:48:56.332Z,20.92
2023-07-03T10:51:26.307Z,20.87
2023-07-03T10:53:57.180Z,21.00
2023-07-03T10:56:43.108Z,21.01
2023-07-03T10:59:29.729Z,21.06
2023-07-03T11:02:07.109Z,21.09
2023-07-03T11:04:52.487Z,21.07
2023-07-03T11:07:39.434Z,21.24
2023-07-03T11:10:18.889Z,21.14
2023-07-03T11:13:02.523Z,21.10
2023-07-03T11:15:53.479Z,21.18
2023-07-03T11:24:53.134Z,21.38
2023-07-03T11:27:56.872Z,21.46
2023-07-03T11:30:27.017Z,21.49
2023-07-03T11:32:55.950Z,21.60
2023-07-03T11:41:00.818Z,21.55
2023-07-03T11:43:30.114Z,21.70
2023-07-03T11:45:59.299Z,21.66
2023-07-03T11:48:44.522Z,21.91
2023-07-03T11:51:14.414Z,21.81
2023-07-03T11:53:45.737Z,22.02
2023-07-03T11:56:34.548Z,21.95
2023-07-03T11:59:07.084Z,21.93
2023-07-03T12:01:33.846Z,21.70
2023-07-03T12:04:03.573Z,21.73
2023-07-03T12:06:39.418Z,21.73
2023-07-03T12:09:27.597Z,21.68
2023-07-03T12:12:08.174Z,21.75
2023-07-03T12:14:40.639Z,21.76
2023-07-03T12:17:32.799Z,21.77
2023-07-03T12:20:13.239Z,21.80
2023-07-03T12:22:46.287Z,21.66
2023-07-03T12:25:25.007Z,21.80
2023-07-03T12:27:52.153Z,21.78
2023-07-03T12:30:28.524Z,21.88
2023-07-03T12:32:56.920Z,21.79
2023-07-03T12:35:28.511Z,22.01
2023-07-03T12:38:06.081Z,22.02
2023-07-03T12:40:33.266Z,22.04
2023-07-03T12:42:59.689Z,22.29
2023-07-03T12:45:28.411Z,22.32
2023-07-03T12:48:01.893Z,22.27
2023-07-03T12:50:28.375Z,22.38
2023-07-03T12:53:03.842Z,22.37
2023-07-03T12:55:37.327Z,22.33
2023-07-03T12:58:06.719Z,22.43
2023-07-03T13:00:35.652Z,22.40
2023-07-03T13:03:03.467Z,22.39
2023-07-03T13:05:35.921Z,22.57
2023-07-03T13:08:07.201Z,22.65
2023-07-03T13:10:33.612Z,22.53
2023-07-03T13:13:11.931Z,22.61
2023-07-03T13:15:41.163Z,22.65
2023-07-03T13:18:16.592Z,22.62
2023-07-03T13:21:00.247Z,22.77
2023-07-03T13:23:34.453Z,22.88
2023-07-03T13:26:02.198Z,23.33
2023-07-03T13:28:33.940Z,23.34
2023-07-03T13:31:07.661Z,23.30
2023-07-03T13:33:37.243Z,23.03
2023-07-03T13:36:26.255Z,22.77
2023-07-03T13:39:16.818Z,22.77
2023-07-03T13:41:44.118Z,22.91
2023-07-03T13:44:12.743Z,22.97
2023-07-03T13:46:40.661Z,22.86
2023-07-03T13:49:07.576Z,23.04
2023-07-03T13:51:36.266Z,23.02
2023-07-03T13:54:11.954Z,22.97
2023-07-03T13:56:43.265Z,23.16
2023-07-03T13:59:10.789Z,22.95
2023-07-03T14:01:38.812Z,22.73
2023-07-03T14:04:06.395Z,22.84
2023-07-03T14:06:33.341Z,22.98
2023-07-03T14:08:59.896Z,23.07
2023-07-03T14:11:26.288Z,23.04
2023-07-03T14:13:54.038Z,22.83
2023-07-03T14:16:20.652Z,22.57
2023-07-03T14:18:47.150Z,22.64
2023-07-03T14:21:14.890Z,22.52
2023-07-03T14:23:45.494Z,22.46
2023-07-03T14:26:13.450Z,22.50
2023-07-03T14:28:40.575Z,22.40
2023-07-03T14:31:08.722Z,22.44
2023-07-03T14:33:35.274Z,22.37
2023-07-03T14:36:01.778Z,22.81
2023-07-03T14:38:28.232Z,22.68
2023-07-03T14:40:54.651Z,22.44
2023-07-03T14:43:21.077Z,22.68
2023-07-03T14:45:47.624Z,22.65
2023-07-03T14:48:14.197Z,22.51
2023-07-03T14:50:40.630Z,22.38
2023-07-03T14:53:07.184Z,22.34
2023-07-03T14:55:33.653Z,22.36
2023-07-03T14:58:00.169Z,22.25
2023-07-03T15:00:26.569Z,22.34
2023-07-03T15:02:53.200Z,22.53
2023-07-03T15:05:23.535Z,22.55
2023-07-03T15:07:52.158Z,22.99
2023-07-03T15:10:20.030Z,23.24
2023-07-03T15:12:47.731Z,23.53
2023-07-03T15:15:14.336Z,23.24
2023-07-03T15:17:40.985Z,23.15
2023-07-03T15:20:08.571Z,23.22
2023-07-03T15:22:35.668Z,23.17
2023-07-03T15:25:02.335Z,22.82
2023-07-03T15:27:28.845Z,22.56
2023-07-03T15:29:55.276Z,22.98
2023-07-03T15:32:21.686Z,23.21
2023-07-03T15:34:52.463Z,23.55
2023-07-03T15:37:19.002Z,23.69
2023-07-03T15:39:45.478Z,23.76
2023-07-03T15:42:11.963Z,23.97
2023-07-03T15:44:38.359Z,23.64
2023-07-03T15:47:08.846Z,23.84
2023-07-03T15:49:38.945Z,23.80
2023-07-03T15:52:06.117Z,23.84
2023-07-03T15:54:35.890Z,23.69
2023-07-03T15:57:04.181Z,23.51
2023-07-03T15:59:31.035Z,23.55
2023-07-03T16:01:58.156Z,23.50
2023-07-03T16:04:24.616Z,23.21
2023-07-03T16:06:51.041Z,22.92
2023-07-03T16:09:17.746Z,22.85
2023-07-03T16:11:44.213Z,22.80
2023-07-03T16:14:10.644Z,22.52
2023-07-03T16:16:37.428Z,22.54
2023-07-03T16:19:04.451Z,22.39
2023-07-03T16:21:32.388Z,22.70
2023-07-03T16:23:59.052Z,23.41
2023-07-03T16:26:27.253Z,23.74
2023-07-03T16:28:54.679Z,23.60
2023-07-03T16:31:24.005Z,23.16
2023-07-03T16:33:52.465Z,22.80
2023-07-03T16:36:21.384Z,22.83
2023-07-03T16:38:49.148Z,22.77
2023-07-03T16:41:16.188Z,23.57
2023-07-03T16:43:45.056Z,24.04
2023-07-03T16:46:13.316Z,23.66
2023-07-03T16:48:40.079Z,23.76
2023-07-03T16:51:08.646Z,25.75
2023-07-03T16:53:38.696Z,25.07
2023-07-03T16:56:13.645Z,26.68
2023-07-03T16:58:42.225Z,26.40
2023-07-03T17:01:15.899Z,28.02
2023-07-03T17:03:42.824Z,27.89
2023-07-03T17:06:16.827Z,28.39
2023-07-03T17:08:43.247Z,28.03
2023-07-03T17:11:12.274Z,28.56
2023-07-03T17:13:39.095Z,27.65
2023-07-03T17:16:05.695Z,28.01
2023-07-03T17:18:32.504Z,28.50
2023-07-03T17:20:59.094Z,27.39
2023-07-03T17:23:25.757Z,27.55
2023-07-03T17:25:54.188Z,27.72
2023-07-03T17:28:20.868Z,27.57
2023-07-03T17:30:47.268Z,27.85
2023-07-03T17:33:13.808Z,27.77
2023-07-03T17:35:40.627Z,27.04
2023-07-03T17:38:09.458Z,26.32
2023-07-03T17:40:38.147Z,25.49
2023-07-03T17:43:04.726Z,25.76
2023-07-03T17:45:31.124Z,25.06
2023-07-03T17:47:57.516Z,24.77
2023-07-03T17:50:23.977Z,24.86
2023-07-03T17:52:50.708Z,25.11
2023-07-03T17:55:17.368Z,24.77
2023-07-03T17:57:43.805Z,24.41
2023-07-03T18:00:10.820Z,23.88
2023-07-03T18:02:37.346Z,23.35
2023-07-03T18:05:04.026Z,23.27
2023-07-03T18:07:30.483Z,23.25
2023-07-03T18:09:56.902Z,23.15
2023-07-03T18:12:23.320Z,22.95
2023-07-03T18:14:49.738Z,22.99
2023-07-03T18:17:16.139Z,22.83
2023-07-03T18:19:42.575Z,22.99
2023-07-03T18:22:08.963Z,22.78
2023-07-03T18:24:35.402Z,23.05
2023-07-03T18:27:02.445Z,22.68
2023-07-03T18:29:28.835Z,22.63
2023-07-03T18:31:55.285Z,22.59
2023-07-03T18:34:21.742Z,22.57
2023-07-03T18:36:48.267Z,22.60
2023-07-03T18:39:14.817Z,22.34
2023-07-03T18:41:43.405Z,22.32
2023-07-03T18:44:10.387Z,22.30
2023-07-03T18:46:36.871Z,22.36
2023-07-03T18:49:03.363Z,22.19
2023-07-03T18:51:29.857Z,22.14
2023-07-03T18:53:56.328Z,22.09
2023-07-03T18:56:22.808Z,21.94
2023-07-03T18:58:52.842Z,21.87
2023-07-03T19:01:19.290Z,21.72
2023-07-03T19:03:45.802Z,21.61
2023-07-03T19:06:14.982Z,21.48
2023-07-03T19:08:41.748Z,21.44
2023-07-03T19:11:08.674Z,21.35
2023-07-03T19:13:35.314Z,21.39
2023-07-03T19:16:01.989Z,21.20
2023-07-03T19:18:31.028Z,21.24
2023-07-03T19:20:57.462Z,21.25
2023-07-03T19:23:23.959Z,21.07
2023-07-03T19:25:55.180Z,21.00
2023-07-03T19:28:22.987Z,20.97
2023-07-03T19:30:57.092Z,20.88
2023-07-03T19:33:24.117Z,20.87
2023-07-03T19:35:51.247Z,20.86
2023-07-03T19:38:18.257Z,21.08
2023-07-03T19:40:44.858Z,20.90
2023-07-03T19:43:11.845Z,20.73
2023-07-03T19:45:39.401Z,20.67
2023-07-03T19:48:07.318Z,20.52
2023-07-03T19:50:36.275Z,20.41
2023-07-03T19:53:02.722Z,20.39
2023-07-03T19:55:29.456Z,20.31
2023-07-03T19:57:56.018Z,20.32
2023-07-03T20:00:22.598Z,20.35
2023-07-03T20:02:49.159Z,20.41
2023-07-03T20:05:16.413Z,20.32
2023-07-03T20:07:42.840Z,20.40
2023-07-03T20:10:09.835Z,20.64
2023-07-03T20:12:36.622Z,20.57
2023-07-03T20:15:03.715Z,20.27
2023-07-03T20:17:31.836Z,20.24
2023-07-03T20:19:58.809Z,20.15
2023-07-03T20:22:25.398Z,20.01
2023-07-03T20:24:51.825Z,20.15
2023-07-03T20:27:18.591Z,20.02
2023-07-03T20:29:50.377Z,19.64
2023-07-03T20:32:17.694Z,19.68
2023-07-03T20:34:45.895Z,19.61
2023-07-03T20:37:12.283Z,19.63
2023-07-03T20:39:38.693Z,19.68
2023-07-03T20:42:06.636Z,19.68
2023-07-03T20:44:34.750Z,19.58
2023-07-03T20:47:04.046Z,19.60
2023-07-03T20:49:31.305Z,19.28
2023-07-03T20:51:59.901Z,19.19
2023-07-03T20:54:34.580Z,19.36
2023-07-03T20:57:05.444Z,19.42
2023-07-03T20:59:34.652Z,18.92
2023-07-03T21:02:01.804Z,18.90
2023-07-03T21:04:28.856Z,19.03
2023-07-03T21:06:56.274Z,18.96
2023-07-03T21:09:22.718Z,19.08
2023-07-03T21:11:50.487Z,19.40
2023-07-03T21:14:18.226Z,19.31
2023-07-03T21:16:44.943Z,19.24
2023-07-03T21:19:13.222Z,19.29
2023-07-03T21:21:40.008Z,19.08
2023-07-03T21:24:10.208Z,19.35
2023-07-03T21:26:37.193Z,19.02
2023-07-03T21:29:05.301Z,18.79
2023-07-03T21:31:36.675Z,19.00
2023-07-03T21:34:04.109Z,18.92
2023-07-03T21:36:33.250Z,18.60
2023-07-03T21:39:01.136Z,18.71
2023-07-03T21:41:31.973Z,18.36
2023-07-03T21:44:02.153Z,18.51
2023-07-03T21:46:30.810Z,18.34
2023-07-03T21:48:58.178Z,18.47
2023-07-03T21:51:29.554Z,18.60
2023-07-03T21:53:56.604Z,18.42
2023-07-03T21:56:28.550Z,18.31
2023-07-03T21:59:02.981Z,18.14
2023-07-03T22:01:35.062Z,18.30
2023-07-03T22:04:03.414Z,18.32
2023-07-03T22:06:29.864Z,18.21
2023-07-03T22:08:57.183Z,17.98
2023-07-03T22:11:24.503Z,17.78
2023-07-03T22:13:51.585Z,17.82
2023-07-03T22:16:18.738Z,18.08
2023-07-03T22:18:45.925Z,17.94
2023-07-03T22:21:13.161Z,17.88
2023-07-03T22:23:39.623Z,17.51
2023-07-03T22:26:06.037Z,17.63
2023-07-03T22:28:32.478Z,17.77
2023-07-03T22:30:59.716Z,17.80
2023-07-03T22:33:26.150Z,17.61
2023-07-03T22:35:54.211Z,17.45
2023-07-03T22:38:21.462Z,17.42
2023-07-03T22:40:51.879Z,17.54
2023-07-03T22:43:19.942Z,17.57
2023-07-03T22:45:46.450Z,17.69
2023-07-03T22:48:14.326Z,17.60
2023-07-03T22:50:41.248Z,17.64
2023-07-03T22:53:09.144Z,17.52
2023-07-03T22:55:40.851Z,17.46
2023-07-03T22:58:09.710Z,17.50
2023-07-03T23:00:39.470Z,17.60
2023-07-03T23:03:06.396Z,17.51
2023-07-03T23:05:32.977Z,17.46
2023-07-03T23:07:59.412Z,17.08
2023-07-03T23:10:25.817Z,17.12
2023-07-03T23:12:52.241Z,16.96
2023-07-03T23:15:18.677Z,16.90
2023-07-03T23:17:45.149Z,17.02
2023-07-03T23:20:15.714Z,17.07
2023-07-03T23:22:42.778Z,17.08
2023-07-03T23:25:09.944Z,17.43
2023-07-03T23:27:36.547Z,17.48
2023-07-03T23:30:05.429Z,17.55
2023-07-03T23:32:34.501Z,17.52
2023-07-03T23:35:01.322Z,17.45
2023-07-03T23:37:27.867Z,17.55
2023-07-03T23:39:54.329Z,17.42
2023-07-03T23:42:20.790Z,17.54
2023-07-03T23:44:47.238Z,17.51
2023-07-03T23:47:14.121Z,17.53
2023-07-03T23:49:40.659Z,17.49
2023-07-03T23:52:07.585Z,17.37
2023-07-03T23:54:34.077Z,17.37
2023-07-03T23:57:00.597Z,17.42
2023-07-03T23:59:28.020Z,17.19
